Time;durP1;ratioP1;P1;durP2;ratioP2;P2;SDS_P1;SDS_P2;PMS_P1;PMS_P2;Temp;Humidity;BMP_temperature;BMP_pressure;BME280_temperature;BME280_humidity;BME280_pressure;Samples;Min_cycle;Max_cycle;Signal;HPM_P1;HPM_P2
2023/01/02 00:02:14;;;;;;;1.17;0.97;;;11.70;94.10;;;;;;5034097;28;20665;-67
2023/01/02 00:04:41;;;;;;;1.13;0.93;;;11.70;94.20;;;;;;5029216;28;20624;-68
2023/01/02 00:07:08;;;;;;;3.00;2.30;;;11.60;94.40;;;;;;5028853;28;20617;-67
2023/01/02 00:09:35;;;;;;;1.80;1.43;;;11.60;94.40;;;;;;5028594;28;20635;-67
2023/01/02 00:12:02;;;;;;;2.90;0.70;;;11.60;94.50;;;;;;5028275;28;21085;-68
2023/01/02 00:14:30;;;;;;;1.10;1.00;;;11.50;94.20;;;;;;5028581;28;21206;-67
2023/01/02 00:16:56;;;;;;;1.40;0.83;;;11.60;94.30;;;;;;5030703;28;20631;-68
2023/01/02 00:19:23;;;;;;;1.03;0.77;;;11.60;94.10;;;;;;5028018;28;20628;-68
2023/01/02 00:21:50;;;;;;;1.17;1.07;;;11.60;94.10;;;;;;5040170;28;20676;-68
2023/01/02 00:24:17;;;;;;;1.73;1.07;;;11.70;94.10;;;;;;5047849;28;20622;-67
2023/01/02 00:26:43;;;;;;;1.20;1.10;;;11.70;94.00;;;;;;5046016;28;20626;-68
2023/01/02 00:29:10;;;;;;;1.13;1.03;;;11.70;93.80;;;;;;5046264;28;20642;-69
2023/01/02 00:31:38;;;;;;;1.03;0.97;;;11.70;93.80;;;;;;5039212;28;20630;-68
2023/01/02 00:34:05;;;;;;;1.17;1.07;;;11.70;93.70;;;;;;5028206;28;20633;-68
2023/01/02 00:36:32;;;;;;;1.37;1.17;;;11.60;93.70;;;;;;5042273;28;20625;-68
2023/01/02 00:38:59;;;;;;;1.17;1.10;;;11.60;93.70;;;;;;5040348;28;21203;-67
2023/01/02 00:41:26;;;;;;;1.53;0.90;;;11.60;93.90;;;;;;5027027;28;20603;-68
2023/01/02 00:43:52;;;;;;;1.07;0.90;;;11.60;93.50;;;;;;5028018;28;20685;-68
2023/01/02 00:46:19;;;;;;;2.00;0.93;;;11.60;93.50;;;;;;5031102;28;20627;-68
2023/01/02 00:48:47;;;;;;;2.40;1.00;;;11.60;93.60;;;;;;5028317;28;20686;-69
2023/01/02 00:51:14;;;;;;;1.90;0.73;;;11.60;93.60;;;;;;5040025;28;20616;-67
2023/01/02 00:53:41;;;;;;;1.07;0.80;;;11.50;93.60;;;;;;5038043;28;20634;-68
2023/01/02 00:56:08;;;;;;;0.80;0.80;;;11.50;93.80;;;;;;5043188;28;20626;-68
2023/01/02 00:58:35;;;;;;;1.20;0.77;;;11.40;93.80;;;;;;5042637;28;20627;-68
2023/01/02 01:01:01;;;;;;;0.67;0.67;;;11.40;93.80;;;;;;5027939;28;20638;-68
2023/01/02 01:03:29;;;;;;;1.33;1.30;;;11.40;93.60;;;;;;5027313;28;21248;-67
2023/01/02 01:05:57;;;;;;;1.80;1.60;;;11.30;94.10;;;;;;5038964;28;20634;-68
2023/01/02 01:08:23;;;;;;;0.50;0.50;;;11.30;93.90;;;;;;5027794;28;20621;-67
2023/01/02 01:10:51;;;;;;;0.83;0.80;;;11.20;94.20;;;;;;5028246;28;20618;-68
2023/01/02 01:13:18;;;;;;;1.50;1.40;;;11.20;93.80;;;;;;5027099;28;20630;-68
2023/01/02 01:15:45;;;;;;;1.17;0.83;;;11.20;94.20;;;;;;5027030;28;20633;-68
2023/01/02 01:18:11;;;;;;;0.90;0.90;;;11.20;94.20;;;;;;5027507;28;20637;-68
2023/01/02 01:20:39;;;;;;;1.30;1.10;;;11.20;94.30;;;;;;5030228;28;20641;-68
2023/01/02 01:23:07;;;;;;;0.83;0.70;;;11.20;93.80;;;;;;5026481;28;20674;-68
2023/01/02 01:25:34;;;;;;;2.57;0.60;;;11.10;94.30;;;;;;5027200;28;20619;-67
2023/01/02 01:28:00;;;;;;;0.60;0.60;;;11.10;94.40;;;;;;5027099;28;20734;-68
2023/01/02 01:30:27;;;;;;;1.00;0.77;;;11.10;94.10;;;;;;5042563;28;20622;-68
2023/01/02 01:32:54;;;;;;;0.80;0.80;;;11.20;94.10;;;;;;5026707;28;20623;-68
2023/01/02 01:35:21;;;;;;;0.83;0.57;;;11.30;93.80;;;;;;5035250;28;20698;-68
2023/01/02 01:37:48;;;;;;;0.60;0.60;;;11.40;93.50;;;;;;5047257;28;20625;-67
2023/01/02 01:40:16;;;;;;;0.40;0.40;;;11.40;93.40;;;;;;5036638;28;20629;-68
2023/01/02 01:42:43;;;;;;;0.80;0.80;;;11.60;93.30;;;;;;5029267;28;20662;-68
2023/01/02 01:45:16;;;;;;;1.00;0.70;;;11.60;93.50;;;;;;5026667;28;20638;-67
2023/01/02 01:47:46;;;;;;;0.70;0.70;;;11.80;93.10;;;;;;5025789;28;20633;-68
2023/01/02 01:50:18;;;;;;;2.43;1.10;;;11.90;92.60;;;;;;5020350;28;20921;-68
2023/01/02 01:52:48;;;;;;;1.17;0.90;;;11.90;92.70;;;;;;5030025;28;20623;-67
2023/01/02 01:55:19;;;;;;;0.67;0.67;;;11.90;92.70;;;;;;5038795;28;20623;-67
2023/01/02 01:57:49;;;;;;;13.63;1.23;;;11.90;93.00;;;;;;5046700;28;20928;-67
2023/01/02 02:00:17;;;;;;;1.10;0.67;;;11.90;92.60;;;;;;5039071;28;20633;-69
2023/01/02 02:02:46;;;;;;;0.63;0.60;;;12.00;92.30;;;;;;5028108;28;20681;-67
2023/01/02 02:05:17;;;;;;;1.10;1.10;;;12.00;92.60;;;;;;5028089;28;20638;-67
2023/01/02 02:07:52;;;;;;;1.73;0.77;;;12.10;92.60;;;;;;5025259;28;20622;-67
2023/01/02 02:10:21;;;;;;;1.73;1.07;;;12.10;92.40;;;;;;5037280;28;20692;-68
2023/01/02 02:12:49;;;;;;;1.30;0.80;;;12.20;92.30;;;;;;5046265;28;20626;-68
2023/01/02 02:15:27;;;;;;;1.90;1.20;;;12.20;92.40;;;;;;5046310;28;21283;-68
2023/01/02 02:18:04;;;;;;;3.93;1.27;;;12.40;92.30;;;;;;5033367;28;20631;-68
2023/01/02 02:20:41;;;;;;;0.90;0.90;;;12.40;91.70;;;;;;5027200;28;20654;-68
2023/01/02 02:24:09;;;;;;;0.50;0.40;;;12.40;92.10;;;;;;5006153;28;20683;-67
2023/01/02 02:27:10;;;;;;;0.70;0.70;;;12.40;92.00;;;;;;5031704;28;21273;-68
2023/01/02 02:30:13;;;;;;;1.10;1.00;;;12.50;91.70;;;;;;5044828;28;20622;-67
2023/01/02 02:33:17;;;;;;;1.47;1.20;;;12.40;92.10;;;;;;5029998;28;20631;-68
2023/01/02 02:35:59;;;;;;;0.50;0.50;;;12.50;92.10;;;;;;5015686;28;20639;-67
2023/01/02 02:38:43;;;;;;;0.80;0.60;;;12.50;92.10;;;;;;5046373;28;20626;-67
2023/01/02 02:41:19;;;;;;;0.67;0.67;;;12.40;92.30;;;;;;5036326;28;20626;-69
2023/01/02 02:43:53;;;;;;;0.80;0.80;;;12.40;92.30;;;;;;5027881;28;20672;-68
2023/01/02 02:46:32;;;;;;;0.97;0.90;;;12.50;91.70;;;;;;5048943;28;20613;-67
2023/01/02 02:49:07;;;;;;;1.03;0.93;;;12.50;92.00;;;;;;5047202;28;21012;-67
2023/01/02 02:51:38;;;;;;;0.70;0.70;;;12.50;92.10;;;;;;5034127;28;20621;-68
2023/01/02 02:54:12;;;;;;;0.90;0.70;;;12.40;92.00;;;;;;5030064;28;20714;-67
2023/01/02 02:56:41;;;;;;;0.70;0.60;;;12.40;91.80;;;;;;5044257;28;20630;-68
2023/01/02 02:59:10;;;;;;;0.70;0.70;;;12.40;92.10;;;;;;5040467;28;20627;-68
2023/01/02 03:01:40;;;;;;;1.67;0.70;;;12.30;92.00;;;;;;5035574;28;20646;-68
2023/01/02 03:04:16;;;;;;;1.97;1.30;;;12.30;91.90;;;;;;5033110;28;20668;-67
2023/01/02 03:07:00;;;;;;;0.77;0.70;;;12.30;92.10;;;;;;5031860;28;20704;-67
2023/01/02 03:09:37;;;;;;;0.90;0.90;;;12.30;92.10;;;;;;5029950;28;20633;-67
2023/01/02 03:12:18;;;;;;;0.80;0.43;;;12.30;92.00;;;;;;5038670;28;20629;-68
2023/01/02 03:14:56;;;;;;;1.27;0.50;;;12.30;91.90;;;;;;5049800;28;20626;-67
2023/01/02 03:17:34;;;;;;;2.03;1.40;;;12.30;92.00;;;;;;5036722;28;20627;-68
2023/01/02 03:20:08;;;;;;;0.60;0.60;;;12.20;92.10;;;;;;5033302;28;21215;-69
2023/01/02 03:22:40;;;;;;;0.83;0.57;;;12.30;91.90;;;;;;5048890;28;20656;-68
2023/01/02 03:25:10;;;;;;;1.30;0.70;;;12.30;91.60;;;;;;5040611;28;20635;-68
2023/01/02 03:27:43;;;;;;;1.13;1.03;;;12.30;91.60;;;;;;5033612;28;20617;-67
2023/01/02 03:30:16;;;;;;;0.97;0.87;;;12.40;91.40;;;;;;5047860;28;20645;-67
2023/01/02 03:32:49;;;;;;;1.20;0.57;;;12.40;91.60;;;;;;5030432;28;21026;-67
2023/01/02 03:35:23;;;;;;;1.43;0.97;;;12.30;91.50;;;;;;5029484;28;21189;-68
2023/01/02 03:37:54;;;;;;;0.40;0.40;;;12.30;91.50;;;;;;5029729;28;20714;-67
2023/01/02 03:40:26;;;;;;;0.50;0.50;;;12.30;91.70;;;;;;5030323;28;20626;-67
2023/01/02 03:43:01;;;;;;;0.77;0.77;;;12.30;91.40;;;;;;5037898;28;20689;-67
2023/01/02 03:45:31;;;;;;;1.03;0.60;;;12.40;91.40;;;;;;5028992;28;20629;-68
2023/01/02 03:48:08;;;;;;;1.03;0.63;;;12.30;91.70;;;;;;5029113;28;21196;-68
2023/01/02 03:50:42;;;;;;;1.13;0.80;;;12.20;91.70;;;;;;5029467;28;21196;-67
2023/01/02 03:53:10;;;;;;;0.70;0.70;;;12.10;91.60;;;;;;5029044;28;20734;-68
2023/01/02 03:55:42;;;;;;;0.60;0.53;;;12.20;91.30;;;;;;5034959;28;21181;-67
2023/01/02 03:58:18;;;;;;;2.33;1.00;;;12.20;91.50;;;;;;5044838;28;20622;-68
2023/01/02 04:00:53;;;;;;;1.47;1.37;;;12.20;91.60;;;;;;5020995;28;20671;-67
2023/01/02 04:03:28;;;;;;;1.67;1.57;;;12.10;92.00;;;;;;5029659;28;20642;-67
2023/01/02 04:06:03;;;;;;;0.87;0.50;;;12.10;91.80;;;;;;5030292;28;20991;-68
2023/01/02 04:08:34;;;;;;;1.17;1.00;;;12.00;91.70;;;;;;5047901;28;20726;-68
2023/01/02 04:11:04;;;;;;;0.97;0.70;;;12.10;91.90;;;;;;5008560;28;20620;-67
2023/01/02 04:13:37;;;;;;;0.63;0.63;;;12.10;92.00;;;;;;5009407;28;20622;-67
2023/01/02 04:16:08;;;;;;;3.83;0.90;;;12.10;91.80;;;;;;5009112;28;20639;-68
2023/01/02 04:18:39;;;;;;;1.57;1.00;;;12.10;91.40;;;;;;5023558;28;20654;-67
2023/01/02 04:21:10;;;;;;;1.80;1.70;;;12.10;92.00;;;;;;5027157;28;20638;-68
2023/01/02 04:23:40;;;;;;;1.63;1.53;;;12.00;91.70;;;;;;5035465;28;20765;-68
2023/01/02 04:26:11;;;;;;;1.37;0.67;;;12.00;91.70;;;;;;5037130;28;20658;-68
2023/01/02 04:28:38;;;;;;;0.77;0.60;;;12.00;91.80;;;;;;5029549;28;20615;-68
2023/01/02 04:31:09;;;;;;;0.67;0.67;;;12.00;91.70;;;;;;5015863;28;21312;-68
2023/01/02 04:33:43;;;;;;;5.93;1.17;;;12.10;91.80;;;;;;5026007;28;20611;-68
2023/01/02 04:36:12;;;;;;;2.43;0.90;;;12.10;91.60;;;;;;5040861;28;20631;-68
2023/01/02 04:38:39;;;;;;;1.20;0.60;;;12.00;91.90;;;;;;5032390;28;21203;-68
2023/01/02 04:41:07;;;;;;;0.63;0.63;;;11.90;92.00;;;;;;5041835;28;20629;-67
2023/01/02 04:43:34;;;;;;;1.17;1.07;;;11.90;92.10;;;;;;5035658;28;20659;-68
2023/01/02 04:46:03;;;;;;;0.80;0.80;;;11.90;91.90;;;;;;5036937;28;20626;-70
2023/01/02 04:48:30;;;;;;;0.70;0.70;;;11.80;92.20;;;;;;5029550;28;20619;-68
2023/01/02 04:50:58;;;;;;;0.50;0.50;;;11.80;91.90;;;;;;5030402;28;20624;-67
2023/01/02 04:53:24;;;;;;;1.37;0.77;;;11.80;91.90;;;;;;5027987;28;20623;-68
2023/01/02 04:55:55;;;;;;;0.67;0.63;;;11.80;92.00;;;;;;5038653;28;20626;-68
2023/01/02 04:58:22;;;;;;;1.00;0.70;;;11.90;91.90;;;;;;5044837;28;20633;-68
2023/01/02 05:00:49;;;;;;;0.60;0.60;;;11.80;91.90;;;;;;5030417;28;20635;-68
2023/01/02 05:03:16;;;;;;;0.53;0.53;;;11.80;92.10;;;;;;5026795;28;20666;-67
2023/01/02 05:05:42;;;;;;;1.43;1.33;;;11.70;92.10;;;;;;5043600;28;20630;-67
2023/01/02 05:08:11;;;;;;;0.80;0.80;;;11.70;92.00;;;;;;5045338;28;21202;-67
2023/01/02 05:10:37;;;;;;;1.13;1.00;;;11.60;92.50;;;;;;5046097;28;20630;-68
2023/01/02 05:13:04;;;;;;;2.03;1.00;;;11.80;92.30;;;;;;5044558;28;20709;-68
2023/01/02 05:15:31;;;;;;;0.80;0.80;;;11.70;92.00;;;;;;5030434;28;20633;-68
2023/01/02 05:17:58;;;;;;;1.43;0.97;;;11.70;91.90;;;;;;5026110;28;20635;-70
2023/01/02 05:20:25;;;;;;;0.87;0.83;;;11.70;92.20;;;;;;5031078;28;20626;-71
2023/01/02 05:25:37;;;;;;;1.70;1.10;;;11.70;91.70;;;;;;5012326;28;20706;-70
2023/01/02 05:28:04;;;;;;;1.33;0.90;;;11.60;92.10;;;;;;5027007;28;20615;-69
2023/01/02 05:30:31;;;;;;;0.47;0.47;;;11.60;92.00;;;;;;5028853;28;20637;-69
2023/01/02 05:32:58;;;;;;;1.10;0.87;;;11.60;92.10;;;;;;5037700;28;20623;-69
2023/01/02 05:35:25;;;;;;;1.53;1.43;;;11.50;92.40;;;;;;5032001;28;20633;-69
2023/01/02 05:37:51;;;;;;;4.23;0.70;;;11.50;91.80;;;;;;5026927;28;20623;-69
2023/01/02 05:40:18;;;;;;;2.70;1.43;;;11.50;92.10;;;;;;5043937;28;20629;-69
2023/01/02 05:42:46;;;;;;;1.23;1.13;;;11.50;91.90;;;;;;5030832;28;20619;-69
2023/01/02 05:45:13;;;;;;;0.80;0.80;;;11.50;91.70;;;;;;5022861;28;20666;-70
2023/01/02 05:47:40;;;;;;;0.60;0.60;;;11.60;91.40;;;;;;5026677;28;20639;-69
2023/01/02 05:50:08;;;;;;;1.07;1.00;;;11.60;91.60;;;;;;5027115;28;20635;-69
2023/01/02 05:52:35;;;;;;;0.90;0.90;;;11.60;91.50;;;;;;5026207;28;20633;-71
2023/01/02 05:55:01;;;;;;;0.90;0.53;;;11.60;91.50;;;;;;5025989;28;20681;-70
2023/01/02 05:57:28;;;;;;;0.60;0.57;;;11.60;91.60;;;;;;5020777;28;20735;-69
2023/01/02 05:59:56;;;;;;;0.90;0.90;;;11.70;91.00;;;;;;5021991;28;20992;-69
2023/01/02 06:02:23;;;;;;;0.80;0.80;;;11.70;91.20;;;;;;5030806;28;20625;-69
2023/01/02 06:04:50;;;;;;;1.70;0.80;;;11.60;91.50;;;;;;5026926;28;20667;-70
2023/01/02 06:07:17;;;;;;;1.67;1.10;;;11.60;91.10;;;;;;5028746;28;20637;-70
2023/01/02 06:09:44;;;;;;;1.00;1.00;;;11.80;91.20;;;;;;5040288;28;20635;-71
2023/01/02 06:12:11;;;;;;;0.40;0.40;;;11.70;91.30;;;;;;5007330;28;20620;-70
2023/01/02 06:14:38;;;;;;;1.03;0.93;;;11.70;91.30;;;;;;5006909;28;20628;-70
2023/01/02 06:17:06;;;;;;;0.77;0.77;;;11.70;91.40;;;;;;5009321;28;20630;-71
2023/01/02 06:19:36;;;;;;;1.23;1.00;;;11.60;91.60;;;;;;5026268;28;20642;-72
2023/01/02 06:22:03;;;;;;;0.60;0.60;;;11.60;91.20;;;;;;5019245;28;20642;-69
2023/01/02 06:24:30;;;;;;;0.80;0.80;;;11.70;90.90;;;;;;5011127;28;20668;-68
2023/01/02 06:26:57;;;;;;;0.40;0.40;;;11.80;90.60;;;;;;5040960;28;20632;-68
2023/01/02 06:29:24;;;;;;;1.13;0.97;;;11.80;90.50;;;;;;5029641;28;20623;-68
2023/01/02 06:31:50;;;;;;;2.47;1.43;;;11.80;90.70;;;;;;5029070;28;20631;-67
2023/01/02 06:34:18;;;;;;;0.50;0.50;;;11.80;90.60;;;;;;5028111;28;20627;-69
2023/01/02 06:36:45;;;;;;;2.30;0.90;;;11.80;90.50;;;;;;5028654;28;20631;-66
2023/01/02 06:39:12;;;;;;;1.50;1.00;;;11.80;90.70;;;;;;5034176;28;20633;-69
2023/01/02 06:41:39;;;;;;;2.70;0.90;;;11.80;90.70;;;;;;5028341;28;20627;-67
2023/01/02 06:44:06;;;;;;;2.83;1.40;;;11.80;90.40;;;;;;5029183;28;20671;-66
2023/01/02 06:46:32;;;;;;;1.67;1.57;;;11.80;90.70;;;;;;5029847;28;20743;-67
2023/01/02 06:48:59;;;;;;;0.87;0.80;;;11.80;90.30;;;;;;5027246;28;20623;-67
2023/01/02 06:51:27;;;;;;;0.70;0.70;;;11.80;90.90;;;;;;5026655;28;20622;-67
2023/01/02 06:53:55;;;;;;;0.73;0.63;;;11.80;90.40;;;;;;5029453;28;21173;-66
2023/01/02 06:56:22;;;;;;;2.10;0.90;;;11.80;90.20;;;;;;5029900;28;20650;-67
2023/01/02 06:58:49;;;;;;;0.77;0.77;;;11.90;90.10;;;;;;5028212;28;20603;-67
2023/01/02 07:01:18;;;;;;;0.90;0.90;;;11.90;90.40;;;;;;5028252;28;20746;-68
2023/01/02 07:03:45;;;;;;;2.80;1.07;;;11.80;90.60;;;;;;5029118;28;21603;-66
2023/01/02 07:06:13;;;;;;;3.10;1.37;;;11.80;90.40;;;;;;5029382;28;20638;-67
2023/01/02 07:08:42;;;;;;;0.57;0.50;;;11.80;90.40;;;;;;5013964;28;20624;-67
2023/01/02 07:11:11;;;;;;;0.50;0.50;;;11.80;90.20;;;;;;5008695;28;20747;-67
2023/01/02 07:13:38;;;;;;;2.63;1.20;;;11.80;89.60;;;;;;5016290;28;20615;-68
2023/01/02 07:16:07;;;;;;;0.80;0.80;;;11.90;90.00;;;;;;5028200;28;20630;-67
2023/01/02 07:18:34;;;;;;;0.80;0.70;;;11.90;90.30;;;;;;5027876;28;20623;-67
2023/01/02 07:21:01;;;;;;;1.00;0.90;;;11.90;90.10;;;;;;5027446;28;20665;-68
2023/01/02 07:23:28;;;;;;;0.83;0.83;;;11.90;90.30;;;;;;5031248;28;20686;-67
2023/01/02 07:25:58;;;;;;;1.73;0.90;;;11.80;90.10;;;;;;5027090;28;20635;-67
2023/01/02 07:28:25;;;;;;;2.93;1.03;;;11.90;90.10;;;;;;5024280;28;20625;-68
2023/01/02 07:30:57;;;;;;;1.60;1.10;;;11.90;90.00;;;;;;5024315;28;20639;-67
2023/01/02 07:33:25;;;;;;;1.20;1.03;;;11.90;90.30;;;;;;5027941;28;20634;-67
2023/01/02 07:35:52;;;;;;;1.57;1.23;;;12.20;90.40;;;;;;5027493;28;20623;-67
2023/01/02 07:38:18;;;;;;;1.23;1.13;;;11.80;90.20;;;;;;5025481;28;20629;-67
2023/01/02 07:40:51;;;;;;;1.00;1.00;;;11.80;90.30;;;;;;5026790;28;20629;-67
2023/01/02 07:43:19;;;;;;;1.10;1.00;;;11.80;90.40;;;;;;5027009;28;20649;-67
2023/01/02 07:45:46;;;;;;;2.20;1.57;;;11.70;90.60;;;;;;5028730;28;20673;-66
2023/01/02 07:48:13;;;;;;;1.00;1.00;;;11.70;90.70;;;;;;5024825;28;20632;-69
2023/01/02 07:50:40;;;;;;;1.10;0.90;;;11.70;90.70;;;;;;5024591;28;20630;-66
2023/01/02 07:53:07;;;;;;;0.63;0.63;;;11.70;90.80;;;;;;5027363;28;20625;-67
2023/01/02 07:55:34;;;;;;;1.43;1.30;;;11.60;90.80;;;;;;5029223;28;21200;-68
2023/01/02 07:58:01;;;;;;;1.23;0.80;;;11.70;90.80;;;;;;5027591;28;20619;-67
2023/01/02 08:00:29;;;;;;;1.07;0.83;;;11.70;90.60;;;;;;5027780;28;20742;-67
2023/01/02 08:02:56;;;;;;;0.90;0.90;;;11.70;91.00;;;;;;5025865;28;20633;-67
2023/01/02 08:05:22;;;;;;;0.60;0.50;;;11.70;90.30;;;;;;5027624;28;20666;-67
2023/01/02 08:07:49;;;;;;;3.53;1.37;;;11.70;90.50;;;;;;5027344;28;20620;-68
2023/01/02 08:10:16;;;;;;;1.03;1.03;;;11.70;90.70;;;;;;5028818;28;20623;-67
2023/01/02 08:12:43;;;;;;;1.53;1.43;;;11.70;90.60;;;;;;5027200;28;20627;-67
2023/01/02 08:15:10;;;;;;;1.93;1.27;;;11.70;90.50;;;;;;5025244;28;20624;-67
2023/01/02 08:17:40;;;;;;;8.43;1.27;;;11.60;90.70;;;;;;5027787;28;20619;-67
2023/01/02 08:20:09;;;;;;;0.90;0.60;;;11.70;90.30;;;;;;5027729;28;20986;-68
2023/01/02 08:22:36;;;;;;;0.80;0.80;;;11.80;90.40;;;;;;5025307;28;20626;-68
2023/01/02 08:25:03;;;;;;;0.90;0.90;;;11.80;90.50;;;;;;5027455;28;20671;-67
2023/01/02 08:27:30;;;;;;;1.37;1.30;;;11.90;90.10;;;;;;5025225;28;20632;-67
2023/01/02 08:29:57;;;;;;;1.17;0.97;;;11.90;90.20;;;;;;5027061;28;20619;-66
2023/01/02 08:32:24;;;;;;;3.53;0.90;;;11.90;90.30;;;;;;5026019;28;20624;-67
2023/01/02 08:34:52;;;;;;;1.10;0.90;;;11.90;90.30;;;;;;5027250;28;20645;-67
2023/01/02 08:37:19;;;;;;;2.53;0.80;;;11.90;90.50;;;;;;5027383;28;20659;-66
2023/01/02 08:39:45;;;;;;;0.70;0.70;;;11.90;90.40;;;;;;5027108;28;20631;-67
2023/01/02 08:42:12;;;;;;;1.00;1.00;;;12.00;90.50;;;;;;5026033;28;20622;-66
2023/01/02 08:44:39;;;;;;;1.93;0.87;;;12.00;90.90;;;;;;5027079;28;21264;-66
2023/01/02 08:47:06;;;;;;;1.20;1.13;;;12.00;90.00;;;;;;5027093;28;20691;-67
2023/01/02 08:49:33;;;;;;;0.70;0.70;;;12.10;90.30;;;;;;5026730;28;21125;-66
2023/01/02 08:52:01;;;;;;;1.03;0.93;;;12.20;89.70;;;;;;5023144;28;21275;-66
2023/01/02 08:54:28;;;;;;;0.73;0.67;;;12.20;90.30;;;;;;5024684;28;20626;-67
2023/01/02 08:56:54;;;;;;;1.43;1.13;;;12.20;90.40;;;;;;5025598;28;20627;-66
2023/01/02 08:59:23;;;;;;;1.60;0.90;;;12.10;90.20;;;;;;5026082;28;20627;-67
2023/01/02 09:01:50;;;;;;;7.83;2.57;;;12.10;90.40;;;;;;5024737;28;21062;-66
2023/01/02 09:04:17;;;;;;;2.70;1.73;;;12.20;90.20;;;;;;5025860;28;21228;-67
2023/01/02 09:06:45;;;;;;;2.00;0.93;;;12.20;90.30;;;;;;5026744;28;20634;-66
2023/01/02 09:09:15;;;;;;;1.27;1.17;;;12.30;89.80;;;;;;5027811;28;20619;-66
2023/01/02 09:11:45;;;;;;;2.87;1.20;;;12.20;89.60;;;;;;5027065;28;20627;-66
2023/01/02 09:14:12;;;;;;;0.80;0.80;;;12.20;88.90;;;;;;5029250;28;20627;-66
2023/01/02 09:16:38;;;;;;;6.13;1.57;;;12.20;89.70;;;;;;5027216;28;20712;-66
2023/01/02 09:19:06;;;;;;;1.70;1.00;;;12.20;89.80;;;;;;5022444;28;20997;-66
2023/01/02 09:21:34;;;;;;;1.23;0.87;;;12.30;88.10;;;;;;5025217;28;20674;-66
2023/01/02 09:24:00;;;;;;;3.30;1.53;;;12.40;88.10;;;;;;5026986;28;20627;-66
2023/01/02 09:26:29;;;;;;;3.17;1.80;;;12.40;88.30;;;;;;5023541;28;20667;-66
2023/01/02 09:28:55;;;;;;;0.67;0.67;;;12.30;87.50;;;;;;5026444;28;20623;-66
2023/01/02 09:31:22;;;;;;;1.40;1.30;;;12.30;88.60;;;;;;5024736;28;20626;-67
2023/01/02 09:33:49;;;;;;;3.07;0.93;;;12.20;89.40;;;;;;5026661;28;20689;-66
2023/01/02 09:36:18;;;;;;;1.30;1.20;;;12.20;88.90;;;;;;5024262;28;20643;-67
2023/01/02 09:38:50;;;;;;;1.60;1.23;;;12.30;89.40;;;;;;5029088;28;20623;-66
2023/01/02 09:41:35;;;;;;;2.30;1.50;;;12.40;89.30;;;;;;5024030;28;20623;-67
2023/01/02 09:44:10;;;;;;;6.27;1.60;;;12.50;89.20;;;;;;5023822;28;20751;-66
2023/01/02 09:46:42;;;;;;;1.80;1.57;;;12.50;89.20;;;;;;5024152;28;20622;-67
2023/01/02 09:49:13;;;;;;;1.63;1.00;;;12.60;85.70;;;;;;5025516;28;20613;-66
2023/01/02 09:51:41;;;;;;;0.87;0.70;;;12.70;86.60;;;;;;5024158;28;20944;-66
2023/01/02 09:54:13;;;;;;;0.80;0.70;;;12.70;86.40;;;;;;5026686;28;20960;-66
2023/01/02 09:56:46;;;;;;;3.40;1.03;;;12.70;86.20;;;;;;5028166;28;20629;-67
2023/01/02 09:59:17;;;;;;;1.43;1.33;;;12.80;84.20;;;;;;5031009;28;20619;-66
2023/01/02 10:01:55;;;;;;;1.67;0.90;;;12.80;85.30;;;;;;5032952;28;20634;-66
2023/01/02 10:04:33;;;;;;;2.70;0.97;;;12.90;83.20;;;;;;5032310;28;20635;-66
2023/01/02 10:07:08;;;;;;;1.47;0.67;;;13.00;83.10;;;;;;5030111;28;20629;-66
2023/01/02 10:09:43;;;;;;;2.93;1.60;;;12.90;83.40;;;;;;5028867;28;20621;-66
2023/01/02 10:12:17;;;;;;;0.97;0.97;;;13.00;83.80;;;;;;5033537;28;20687;-66
2023/01/02 10:14:53;;;;;;;1.20;1.10;;;13.00;82.90;;;;;;5031415;28;21521;-66
2023/01/02 10:17:20;;;;;;;3.23;1.33;;;13.10;84.30;;;;;;5029923;28;20627;-67
2023/01/02 10:19:53;;;;;;;2.40;0.93;;;13.10;84.80;;;;;;5032862;28;20626;-66
2023/01/02 10:22:23;;;;;;;0.73;0.60;;;13.20;81.90;;;;;;5031215;28;21048;-66
2023/01/02 10:24:55;;;;;;;1.27;1.27;;;13.20;82.30;;;;;;5030890;28;20659;-66
2023/01/02 10:27:28;;;;;;;1.60;1.50;;;13.40;81.90;;;;;;5030871;28;20738;-66
2023/01/02 10:30:05;;;;;;;3.97;1.40;;;13.40;83.10;;;;;;5031892;28;20969;-66
2023/01/02 10:32:34;;;;;;;1.90;0.70;;;13.50;80.90;;;;;;5030265;28;20630;-67
2023/01/02 10:35:14;;;;;;;2.47;0.70;;;13.50;81.30;;;;;;5032398;28;20645;-66
2023/01/02 10:37:41;;;;;;;3.20;1.00;;;13.50;83.00;;;;;;5031166;28;20622;-66
2023/01/02 10:40:09;;;;;;;1.00;0.80;;;13.70;81.30;;;;;;5032098;28;20623;-67
2023/01/02 10:42:37;;;;;;;0.73;0.70;;;13.70;78.90;;;;;;5031354;28;20615;-67
2023/01/02 10:45:04;;;;;;;1.97;1.07;;;13.70;81.40;;;;;;5032481;28;20717;-66
2023/01/02 10:47:35;;;;;;;2.40;1.83;;;13.70;82.20;;;;;;5032023;28;20975;-66
2023/01/02 10:50:04;;;;;;;2.30;1.30;;;13.80;81.60;;;;;;5032403;28;20614;-66
2023/01/02 10:52:33;;;;;;;1.50;1.40;;;13.80;80.60;;;;;;5031249;28;20634;-67
2023/01/02 10:55:01;;;;;;;1.47;1.00;;;13.90;80.60;;;;;;5030387;28;20615;-67
2023/01/02 10:57:40;;;;;;;3.63;1.40;;;13.90;81.10;;;;;;5032031;28;20623;-67
2023/01/02 11:00:24;;;;;;;1.43;1.33;;;14.00;81.70;;;;;;5031800;28;20646;-66
2023/01/02 11:02:53;;;;;;;11.23;2.17;;;13.90;80.80;;;;;;5031819;28;20615;-66
2023/01/02 11:05:22;;;;;;;2.73;2.20;;;14.00;81.00;;;;;;5027623;28;20679;-66
2023/01/02 11:07:50;;;;;;;1.23;1.13;;;14.00;82.00;;;;;;5017108;28;20619;-66
2023/01/02 11:10:24;;;;;;;2.73;1.13;;;14.00;81.40;;;;;;5030509;28;20628;-67
2023/01/02 11:12:52;;;;;;;1.10;1.00;;;14.10;80.80;;;;;;5030696;28;20635;-66
2023/01/02 11:15:25;;;;;;;3.37;1.17;;;14.10;81.00;;;;;;5030077;28;20689;-66
2023/01/02 11:17:52;;;;;;;1.07;0.67;;;14.10;82.20;;;;;;5033328;28;20634;-67
2023/01/02 11:20:24;;;;;;;1.17;0.90;;;14.20;78.90;;;;;;5049548;28;20637;-67
2023/01/02 11:22:52;;;;;;;1.63;0.90;;;14.30;76.40;;;;;;5037943;28;20654;-66
2023/01/02 11:25:22;;;;;;;3.13;1.00;;;14.50;74.50;;;;;;5009857;28;20677;-67
2023/01/02 11:27:50;;;;;;;1.13;1.03;;;14.60;76.60;;;;;;5010034;28;20623;-66
2023/01/02 11:30:30;;;;;;;0.60;0.60;;;14.70;76.40;;;;;;5008965;28;20620;-67
2023/01/02 11:33:08;;;;;;;1.43;1.00;;;14.70;74.80;;;;;;5023600;28;21256;-67
2023/01/02 11:35:39;;;;;;;2.10;0.80;;;14.70;75.70;;;;;;5024355;28;21292;-67
2023/01/02 11:38:14;;;;;;;0.80;0.80;;;14.70;73.20;;;;;;5028121;28;20639;-67
2023/01/02 11:40:53;;;;;;;4.30;1.33;;;14.80;73.70;;;;;;5026422;28;20641;-66
2023/01/02 11:46:22;;;;;;;2.30;1.10;;;14.90;74.10;;;;;;5037334;28;21221;-67
2023/01/02 11:48:53;;;;;;;0.83;0.73;;;15.10;76.20;;;;;;5026725;28;20624;-67
2023/01/02 11:51:22;;;;;;;4.67;1.20;;;15.00;77.40;;;;;;5035947;28;20610;-67
2023/01/02 11:53:53;;;;;;;0.50;0.50;;;15.00;78.90;;;;;;5037531;28;20639;-67
2023/01/02 11:56:26;;;;;;;0.80;0.80;;;15.00;77.00;;;;;;5037006;28;20997;-67
2023/01/02 11:58:58;;;;;;;1.53;0.50;;;15.10;77.90;;;;;;5039253;28;20624;-67
2023/01/02 12:01:32;;;;;;;1.30;1.20;;;15.00;78.90;;;;;;5022811;28;20624;-68
2023/01/02 12:03:59;;;;;;;1.23;0.67;;;15.00;78.80;;;;;;5025222;28;20722;-67
2023/01/02 12:06:38;;;;;;;0.77;0.67;;;14.90;78.10;;;;;;5027465;28;20687;-67
2023/01/02 12:09:10;;;;;;;1.27;1.10;;;14.80;79.00;;;;;;5007965;28;20628;-67
2023/01/02 12:11:49;;;;;;;0.90;0.70;;;14.80;77.70;;;;;;5030806;28;21266;-68
2023/01/02 12:14:18;;;;;;;4.50;1.00;;;14.80;77.80;;;;;;5019382;28;20624;-69
2023/01/02 12:16:52;;;;;;;0.60;0.60;;;14.70;78.80;;;;;;5026854;28;20611;-67
2023/01/02 12:19:35;;;;;;;1.07;0.70;;;14.70;78.90;;;;;;5032433;28;20633;-67
2023/01/02 12:22:23;;;;;;;2.67;0.83;;;14.80;79.20;;;;;;5030990;28;20662;-67
2023/01/02 12:25:29;;;;;;;2.33;1.23;;;14.70;78.80;;;;;;5047242;28;20635;-66
2023/01/02 12:28:03;;;;;;;1.30;1.20;;;14.80;79.10;;;;;;5036096;28;20627;-68
2023/01/02 12:30:33;;;;;;;1.07;0.93;;;14.80;78.60;;;;;;5034924;28;20650;-68
2023/01/02 12:33:21;;;;;;;0.67;0.40;;;14.90;77.70;;;;;;5035190;28;20619;-67
2023/01/02 12:36:08;;;;;;;1.03;0.80;;;14.80;78.20;;;;;;5033455;28;20630;-68
2023/01/02 12:38:58;;;;;;;2.23;0.90;;;14.80;80.10;;;;;;5020092;28;20636;-67
2023/01/02 12:41:30;;;;;;;1.90;1.33;;;14.80;80.20;;;;;;5033890;28;21215;-67
2023/01/02 12:44:22;;;;;;;1.63;1.03;;;14.90;79.40;;;;;;5031912;28;20655;-67
2023/01/02 12:47:16;;;;;;;0.80;0.80;;;14.90;79.70;;;;;;5022972;28;20697;-67
2023/01/02 12:49:55;;;;;;;2.63;0.60;;;14.90;79.80;;;;;;5028107;28;20967;-67
2023/01/02 12:52:37;;;;;;;1.83;0.87;;;15.10;78.40;;;;;;5025252;28;20627;-67
2023/01/02 12:55:27;;;;;;;1.17;0.87;;;15.10;79.40;;;;;;5028281;28;20963;-67
2023/01/02 12:57:58;;;;;;;0.70;0.63;;;15.20;77.90;;;;;;5039784;28;20637;-67
2023/01/02 13:00:55;;;;;;;1.23;0.80;;;15.10;81.20;;;;;;5026252;28;21526;-67
2023/01/02 13:03:45;;;;;;;3.53;0.97;;;15.20;78.90;;;;;;5018586;28;21223;-67
2023/01/02 13:06:17;;;;;;;1.57;0.90;;;15.20;75.90;;;;;;5026645;28;20671;-67
2023/01/02 13:08:50;;;;;;;1.30;0.60;;;15.20;77.90;;;;;;5026989;28;20615;-67
2023/01/02 13:11:24;;;;;;;1.40;0.90;;;15.20;78.70;;;;;;5026184;28;20647;-68
2023/01/02 13:13:53;;;;;;;0.60;0.60;;;15.10;79.30;;;;;;5027170;28;20627;-67